»·PEaware :: CGVZB MDSD-TNCM

CGVZB :: MDSD-TNCM

FLIGHT INFORMATION

Flight Status: Arrived
Operator: Unknown
More flights by this operator :: More flights under this callsign
Pilot: Alan S. (10569)
Aircraft: Boeing 747-8
(B748)
More flights by this aircraft type
Origin: MDSD Las Americas Dr J F Pena Gome
Dominican Republic
Destination: TNCM Princess Juliana Intl
Netherlands Antilles
More flights between these airports :: More routes between these airports
Route: MIROX1L MIROX G633 MAZ RTE12 JOSHE RTE4 COY R760 PJM ANG
File this flight plan on PilotEdge
Remarks:
Altitude:
(Current/Filed)
31,000ft
Speed:
(Current/Filed)
485kts
Departed: 09-Jul-17 02:26 PM
Arrived: 09-Jul-17 03:31 PM
Distance/Time
Traveled:
374nm/1:05
Distance/Time
To Go:
Arrived

Flight Plot

Page will automatically refresh every two minutes.

Flight plan parsing failed; only flown route is shown


Map Options




Map Legend


Flown Route
Filed Route
Departure Airport
Arrival Airport
Navaid (VOR, NDB)
Fix

Horizontal Profiles

Position Reports

Time Latitude Longitude Heading Altitude Ground
Speed
09-Jul-17 13:56 18.429580 -69.675059 197 54ft 0kts
09-Jul-17 13:57 18.429580 -69.675059 197 54ft 0kts
09-Jul-17 13:58 18.429580 -69.675059 197 54ft 0kts
09-Jul-17 13:59 18.429580 -69.675059 197 54ft 0kts
09-Jul-17 14:00 18.429580 -69.675059 197 54ft 0kts
09-Jul-17 14:01 18.429580 -69.675059 197 54ft 0kts
09-Jul-17 14:02 18.429580 -69.675059 197 54ft 0kts
09-Jul-17 14:03 18.429580 -69.675059 197 54ft 0kts
09-Jul-17 14:04 18.429580 -69.675059 197 54ft 0kts
09-Jul-17 14:05 18.429580 -69.675059 197 54ft 0kts
09-Jul-17 14:06 18.429580 -69.675059 197 54ft 0kts
09-Jul-17 14:07 18.429580 -69.675059 197 54ft 0kts
09-Jul-17 14:08 18.429580 -69.675059 197 54ft 0kts
09-Jul-17 14:09 18.429580 -69.675059 197 54ft 0kts
09-Jul-17 14:10 18.429580 -69.675059 197 54ft 0kts
09-Jul-17 14:11 18.429580 -69.675059 197 54ft 0kts
09-Jul-17 14:12 18.429580 -69.675059 197 54ft 0kts
09-Jul-17 14:13 18.429580 -69.675059 197 54ft 0kts
09-Jul-17 14:14 18.429580 -69.675059 197 54ft 0kts
09-Jul-17 14:15 18.429580 -69.675059 197 54ft 0kts
09-Jul-17 14:16 18.429580 -69.675059 197 54ft 0kts
09-Jul-17 14:17 18.429580 -69.675059 197 54ft 0kts
09-Jul-17 14:18 18.429989 -69.674921 197 55ft 1kts
09-Jul-17 14:19 18.430420 -69.674775 197 56ft 1kts
09-Jul-17 14:20 18.430598 -69.674715 197 57ft 0kts
09-Jul-17 14:21 18.430598 -69.674715 197 57ft 0kts
09-Jul-17 14:22 18.430598 -69.674715 197 57ft 0kts
09-Jul-17 14:23 18.430598 -69.674715 197 57ft 0kts
09-Jul-17 14:24 18.430146 -69.674403 134 57ft 12kts
09-Jul-17 14:25 18.426668 -69.669835 157 71ft 26kts
09-Jul-17 14:26 18.417799 -69.666599 159 73ft 37kts
09-Jul-17 14:27 18.415690 -69.665532 118 71ft 0kts
09-Jul-17 14:28 18.415514 -69.665103 108 71ft 15kts
09-Jul-17 14:29 18.417036 -69.664354 341 75ft 51kts
09-Jul-17 14:30 18.461045 -69.680601 341 1661ft 200kts
09-Jul-17 14:31 18.522922 -69.706166 349 3549ft 272kts
09-Jul-17 14:32 18.568713 -69.658826 103 7210ft 283kts
09-Jul-17 14:33 18.530063 -69.582453 115 10867ft 307kts
09-Jul-17 14:34 18.492367 -69.494055 112 14559ft 334kts
09-Jul-17 14:35 18.452881 -69.426274 129 17875ft 338kts
09-Jul-17 14:36 18.380076 -69.328223 129 20580ft 396kts
09-Jul-17 14:37 18.321072 -69.228075 111 23741ft 418kts
09-Jul-17 14:38 18.294277 -69.106164 103 26464ft 440kts
09-Jul-17 14:39 18.269436 -68.976807 103 28784ft 464kts
09-Jul-17 14:40 18.242803 -68.841453 103 30958ft 480kts
09-Jul-17 14:41 18.211410 -68.699758 105 30995ft 509kts
09-Jul-17 14:42 18.183502 -68.579337 101 30990ft 510kts
09-Jul-17 14:43 18.182542 -68.430701 84 30994ft 514kts
09-Jul-17 14:44 18.193681 -68.282876 89 30991ft 513kts
09-Jul-17 14:45 18.196950 -68.133453 90 30993ft 512kts
09-Jul-17 14:46 18.200790 -67.983968 88 30992ft 513kts
09-Jul-17 14:47 18.210927 -67.834517 86 30997ft 513kts
09-Jul-17 14:48 18.221931 -67.685023 86 31034ft 513kts
09-Jul-17 14:49 18.231625 -67.535537 87 31037ft 513kts
09-Jul-17 14:50 18.241434 -67.385810 86 31037ft 513kts
09-Jul-17 14:51 18.251268 -67.236517 87 31035ft 513kts
09-Jul-17 14:52 18.257330 -67.087222 91 31035ft 512kts
09-Jul-17 14:53 18.253427 -66.940134 92 31026ft 490kts
09-Jul-17 14:54 18.249211 -66.796389 91 31036ft 492kts
09-Jul-17 14:55 18.246101 -66.652766 91 31037ft 492kts
09-Jul-17 14:56 18.239983 -66.509551 98 31036ft 492kts
09-Jul-17 14:57 18.195190 -66.376731 118 31039ft 490kts
09-Jul-17 14:58 18.136402 -66.248075 113 31037ft 491kts
09-Jul-17 14:59 18.083933 -66.115827 113 31027ft 491kts
09-Jul-17 15:00 18.028473 -65.985596 118 31020ft 490kts
09-Jul-17 15:01 17.972511 -65.855220 107 31019ft 491kts
09-Jul-17 15:02 17.944256 -65.715124 100 31019ft 492kts
09-Jul-17 15:03 17.917837 -65.574483 102 31025ft 491kts
09-Jul-17 15:04 17.888163 -65.434394 103 31032ft 491kts
09-Jul-17 15:05 17.858460 -65.295495 102 31033ft 491kts
09-Jul-17 15:06 17.829816 -65.155640 102 31040ft 492kts
09-Jul-17 15:07 17.800444 -65.015946 103 31045ft 492kts
09-Jul-17 15:08 17.770821 -64.875321 102 31046ft 494kts
09-Jul-17 15:09 17.743213 -64.734395 96 31044ft 494kts
09-Jul-17 15:10 17.750225 -64.591859 78 31047ft 493kts
09-Jul-17 15:11 17.780739 -64.452072 75 31045ft 492kts
09-Jul-17 15:12 17.810312 -64.311954 77 31042ft 492kts
09-Jul-17 15:13 17.836994 -64.171405 78 31038ft 491kts
09-Jul-17 15:14 17.862358 -64.038153 78 30529ft 460kts
09-Jul-17 15:15 17.887091 -63.909699 78 28526ft 438kts
09-Jul-17 15:16 17.910917 -63.785657 78 25862ft 431kts
09-Jul-17 15:17 17.934319 -63.664019 79 23089ft 421kts
09-Jul-17 15:18 17.956713 -63.545484 79 20288ft 404kts
09-Jul-17 15:19 17.977612 -63.435343 80 17617ft 378kts
09-Jul-17 15:20 17.997700 -63.329557 80 15398ft 362kts
09-Jul-17 15:21 18.016771 -63.228611 80 13389ft 344kts
09-Jul-17 15:22 18.034314 -63.137874 80 11296ft 302kts
09-Jul-17 15:23 18.085341 -63.079269 1 9409ft 301kts
09-Jul-17 15:24 18.162458 -63.106906 343 7644ft 291kts
09-Jul-17 15:25 18.223203 -63.148815 298 5715ft 262kts
09-Jul-17 15:26 18.212812 -63.215591 217 4417ft 234kts
09-Jul-17 15:27 18.159956 -63.252404 211 3589ft 228kts
09-Jul-17 15:28 18.103552 -63.281427 202 2848ft 225kts
09-Jul-17 15:29 18.045759 -63.295534 162 2265ft 198kts
09-Jul-17 15:30 18.011885 -63.256327 114 1742ft 183kts
09-Jul-17 15:31 18.025717 -63.207582 58 1645ft 176kts
09-Jul-17 15:32 18.032827 -63.164748 80 999ft 150kts
09-Jul-17 15:33 18.039017 -63.122126 81 110ft 145kts
09-Jul-17 15:34 18.042091 -63.100903 81 22ft 29kts
09-Jul-17 15:35 18.042058 -63.101010 261 22ft 33kts
09-Jul-17 15:36 18.040462 -63.111582 264 25ft 11kts
09-Jul-17 15:37 18.040737 -63.116470 19 24ft 18kts
09-Jul-17 15:38 18.042989 -63.112818 357 22ft 7kts
09-Jul-17 15:39 18.043270 -63.112860 351 22ft 0kts

Navigation Log

Ident Type
Flight plan parsing failed, navigation log unavailable